Time;durP1;ratioP1;P1;durP2;ratioP2;P2;SDS_P1;SDS_P2;PMS_P1;PMS_P2;Temp;Humidity;BMP_temperature;BMP_pressure;BME280_temperature;BME280_humidity;BME280_pressure;Samples;Min_cycle;Max_cycle;Signal;HPM_P1;HPM_P2
2022/01/11 00:01:45;;;;;;;2.37;2.27;;;3.40;91.90;;;;;;5094297;28;20182;-82
2022/01/11 00:04:13;;;;;;;2.60;2.40;;;3.40;92.20;;;;;;5094273;28;20181;-83
2022/01/11 00:06:45;;;;;;;2.70;2.50;;;3.30;92.60;;;;;;5094219;28;20165;-82
2022/01/11 00:09:30;;;;;;;2.47;2.30;;;3.20;92.40;;;;;;5094218;28;20166;-82
2022/01/11 00:11:56;;;;;;;4.87;4.10;;;3.20;92.90;;;;;;5094294;28;20157;-81
2022/01/11 00:14:22;;;;;;;6.50;5.17;;;3.10;93.40;;;;;;5094161;28;20261;-82
2022/01/11 00:16:47;;;;;;;5.57;4.30;;;2.90;93.70;;;;;;5075915;28;20201;-82
2022/01/11 00:19:14;;;;;;;6.30;4.50;;;2.70;94.00;;;;;;5094008;28;20602;-83
2022/01/11 00:21:46;;;;;;;4.83;4.33;;;2.60;94.30;;;;;;5093712;28;20173;-82
2022/01/11 00:24:29;;;;;;;4.73;4.20;;;2.50;94.70;;;;;;5094022;28;20213;-82
2022/01/11 00:27:01;;;;;;;5.80;4.57;;;2.30;94.90;;;;;;5094012;28;20514;-83
2022/01/11 00:29:28;;;;;;;5.37;4.87;;;2.20;95.20;;;;;;5075904;28;20170;-83
2022/01/11 00:31:56;;;;;;;5.67;4.77;;;2.10;95.30;;;;;;5093999;28;20561;-84
2022/01/11 00:34:24;;;;;;;6.63;5.23;;;2.00;95.50;;;;;;5093664;28;20184;-83
2022/01/11 00:36:50;;;;;;;5.20;4.70;;;1.90;95.70;;;;;;5093438;28;20249;-82
2022/01/11 00:39:15;;;;;;;5.13;4.63;;;1.80;95.80;;;;;;5093569;28;20226;-81
2022/01/11 00:41:43;;;;;;;6.37;4.77;;;1.70;96.00;;;;;;5093577;28;20510;-81
2022/01/11 00:44:10;;;;;;;5.33;4.83;;;1.70;96.00;;;;;;5093569;28;20205;-82
2022/01/11 00:46:36;;;;;;;5.30;3.97;;;1.70;95.90;;;;;;5093629;28;20243;-82
2022/01/11 00:49:04;;;;;;;5.10;4.20;;;1.70;96.10;;;;;;5093427;28;20190;-83
2022/01/11 00:51:30;;;;;;;5.60;5.00;;;1.60;96.30;;;;;;5075318;28;20179;-82
2022/01/11 00:53:57;;;;;;;7.87;5.87;;;1.60;96.40;;;;;;5093524;28;20177;-82
2022/01/11 00:56:23;;;;;;;6.53;4.80;;;1.50;96.40;;;;;;5075201;28;20180;-81
2022/01/11 00:58:48;;;;;;;7.10;4.80;;;1.60;96.50;;;;;;5093345;28;20197;-82
2022/01/11 01:01:15;;;;;;;6.27;4.57;;;1.50;96.60;;;;;;5093306;28;20165;-82
2022/01/11 01:03:41;;;;;;;4.93;4.47;;;1.60;96.60;;;;;;5093409;28;20244;-83
2022/01/11 01:06:07;;;;;;;5.40;4.80;;;1.50;96.70;;;;;;5093213;28;20194;-82
2022/01/11 01:08:32;;;;;;;5.13;4.43;;;1.60;96.60;;;;;;5093257;28;20174;-82
2022/01/11 01:10:58;;;;;;;5.40;4.90;;;1.50;96.50;;;;;;5093201;28;20176;-82
2022/01/11 01:13:27;;;;;;;7.87;4.90;;;1.40;96.70;;;;;;5093076;28;20698;-82
2022/01/11 01:15:55;;;;;;;6.77;4.70;;;1.30;96.80;;;;;;5093111;28;20191;-81
2022/01/11 01:18:24;;;;;;;6.40;4.70;;;1.30;96.90;;;;;;5093110;28;20189;-83
2022/01/11 01:20:51;;;;;;;5.27;4.77;;;1.30;97.00;;;;;;5095552;28;20199;-82
2022/01/11 01:23:17;;;;;;;5.53;4.73;;;1.30;96.80;;;;;;5094777;28;20171;-83
2022/01/11 01:25:45;;;;;;;5.87;4.83;;;1.30;96.70;;;;;;5097673;28;20208;-82
2022/01/11 01:28:11;;;;;;;6.90;4.73;;;1.20;96.60;;;;;;5097006;28;20260;-82
2022/01/11 01:30:37;;;;;;;5.57;4.63;;;1.20;96.70;;;;;;5093647;28;20211;-82
2022/01/11 01:33:04;;;;;;;5.10;4.60;;;1.10;96.80;;;;;;5093031;28;20221;-82
2022/01/11 01:35:36;;;;;;;4.97;4.43;;;1.20;96.90;;;;;;5095701;28;20576;-82
2022/01/11 01:38:03;;;;;;;4.27;3.83;;;1.10;96.90;;;;;;5097065;28;20690;-81
2022/01/11 01:40:35;;;;;;;4.03;3.53;;;1.10;96.60;;;;;;5097127;28;20179;-82
2022/01/11 01:43:04;;;;;;;3.27;2.97;;;0.90;96.20;;;;;;5078825;28;20534;-82
2022/01/11 01:45:31;;;;;;;3.37;3.07;;;0.90;96.10;;;;;;5097033;28;20178;-81
2022/01/11 01:47:58;;;;;;;3.57;3.27;;;1.00;96.30;;;;;;5096954;28;20266;-82
2022/01/11 01:50:26;;;;;;;4.40;3.10;;;1.00;95.80;;;;;;5096929;28;20167;-82
2022/01/11 01:52:54;;;;;;;3.47;3.17;;;1.10;96.30;;;;;;5096826;28;20225;-82
2022/01/11 01:55:20;;;;;;;3.23;2.93;;;1.10;96.30;;;;;;5096830;28;20224;-82
2022/01/11 01:57:46;;;;;;;3.47;3.17;;;1.00;95.90;;;;;;5096794;28;20263;-82
2022/01/11 02:00:12;;;;;;;2.90;2.70;;;1.10;95.70;;;;;;5096784;28;20608;-82
2022/01/11 02:02:39;;;;;;;3.00;2.80;;;1.10;95.60;;;;;;5096919;28;20188;-82
2022/01/11 02:05:06;;;;;;;2.80;2.60;;;1.10;95.20;;;;;;5096739;28;20199;-82
2022/01/11 02:07:33;;;;;;;2.73;2.53;;;1.20;95.20;;;;;;5096637;28;20662;-81
2022/01/11 02:10:01;;;;;;;2.90;2.70;;;1.20;95.10;;;;;;5096730;28;20173;-82
2022/01/11 02:12:28;;;;;;;3.10;2.80;;;1.20;95.20;;;;;;5096427;28;20209;-83
2022/01/11 02:14:54;;;;;;;3.30;3.07;;;1.30;94.80;;;;;;5096906;28;20659;-83
2022/01/11 02:17:19;;;;;;;3.00;2.80;;;1.30;95.00;;;;;;5096323;28;20169;-83
2022/01/11 02:19:45;;;;;;;2.80;2.60;;;1.40;95.50;;;;;;5096258;28;20291;-84
2022/01/11 02:22:11;;;;;;;2.73;2.53;;;1.30;95.10;;;;;;5096426;28;20173;-83
2022/01/11 02:24:37;;;;;;;2.50;2.40;;;1.30;95.00;;;;;;5096148;28;20268;-84
2022/01/11 02:27:03;;;;;;;2.63;2.47;;;1.30;95.10;;;;;;5096143;28;20590;-82
2022/01/11 02:29:30;;;;;;;2.40;2.30;;;1.30;95.50;;;;;;5077958;28;20606;-82
2022/01/11 02:31:55;;;;;;;3.37;3.00;;;1.30;95.40;;;;;;5077834;28;20169;-83
2022/01/11 02:34:21;;;;;;;3.00;2.80;;;1.30;95.30;;;;;;5095958;28;20222;-81
2022/01/11 02:36:47;;;;;;;4.03;3.43;;;1.30;95.50;;;;;;5074162;28;20699;-81
2022/01/11 02:39:13;;;;;;;3.43;3.13;;;1.30;95.40;;;;;;5075677;28;20631;-83
2022/01/11 02:41:53;;;;;;;3.10;2.90;;;1.30;95.30;;;;;;5075742;28;20208;-84
2022/01/11 02:44:19;;;;;;;2.57;2.37;;;1.30;95.70;;;;;;5075750;28;20154;-81
2022/01/11 02:46:45;;;;;;;3.90;3.03;;;1.20;95.30;;;;;;5075478;28;20507;-82
2022/01/11 02:49:11;;;;;;;3.07;2.87;;;1.20;95.30;;;;;;5075438;28;20253;-81
2022/01/11 02:51:37;;;;;;;3.30;3.10;;;1.20;95.40;;;;;;5075502;28;20187;-81
2022/01/11 02:54:05;;;;;;;3.03;2.83;;;1.10;95.60;;;;;;5075406;28;20180;-82
2022/01/11 02:56:31;;;;;;;3.10;2.90;;;1.10;95.80;;;;;;5075428;28;20161;-82
2022/01/11 02:58:57;;;;;;;3.33;3.03;;;1.10;95.90;;;;;;5075290;28;20744;-82
2022/01/11 03:01:23;;;;;;;3.40;3.20;;;1.10;95.70;;;;;;5075299;28;20522;-82
2022/01/11 03:03:49;;;;;;;3.50;3.20;;;1.10;96.00;;;;;;5075374;28;20180;-82
2022/01/11 03:06:15;;;;;;;3.20;2.90;;;1.10;95.80;;;;;;5075237;28;20580;-82
2022/01/11 03:08:46;;;;;;;3.20;3.00;;;1.10;96.20;;;;;;5075196;28;20181;-82
2022/01/11 03:11:13;;;;;;;3.17;2.90;;;1.00;95.90;;;;;;5075180;28;20168;-82
2022/01/11 03:13:41;;;;;;;3.10;2.90;;;1.00;95.80;;;;;;5075053;28;20169;-82
2022/01/11 03:16:08;;;;;;;3.57;3.27;;;1.00;96.00;;;;;;5075113;28;20177;-82
2022/01/11 03:18:34;;;;;;;3.90;3.50;;;1.00;96.10;;;;;;5074945;28;20209;-81
2022/01/11 03:21:00;;;;;;;3.73;3.40;;;0.90;95.80;;;;;;5075638;28;20537;-81
2022/01/11 03:23:26;;;;;;;3.20;3.00;;;0.90;95.80;;;;;;5078459;28;20220;-82
2022/01/11 03:25:53;;;;;;;4.20;3.80;;;0.90;95.70;;;;;;5075049;28;20570;-83
2022/01/11 03:28:20;;;;;;;3.90;3.50;;;0.90;95.90;;;;;;5074849;28;20200;-83
2022/01/11 03:30:46;;;;;;;4.53;4.00;;;0.80;96.00;;;;;;5074742;28;20193;-83
2022/01/11 03:33:12;;;;;;;3.97;3.67;;;0.80;95.80;;;;;;5074554;28;20209;-83
2022/01/11 03:35:39;;;;;;;8.47;3.90;;;0.70;95.70;;;;;;5073058;28;20577;-83
2022/01/11 03:38:06;;;;;;;3.90;3.60;;;0.70;96.00;;;;;;5074557;28;20181;-83
2022/01/11 03:40:33;;;;;;;4.10;3.60;;;0.70;95.80;;;;;;5074610;28;20648;-83
2022/01/11 03:42:58;;;;;;;4.33;4.00;;;0.70;96.10;;;;;;5074537;28;20523;-83
2022/01/11 03:45:26;;;;;;;5.23;3.60;;;0.60;96.30;;;;;;5074699;28;20164;-83
2022/01/11 03:47:55;;;;;;;4.20;3.80;;;0.60;96.50;;;;;;5074281;28;20606;-81
2022/01/11 03:50:22;;;;;;;4.03;3.73;;;0.60;96.30;;;;;;5074335;28;20219;-81
2022/01/11 03:52:51;;;;;;;4.10;3.80;;;0.60;96.30;;;;;;5074251;28;20511;-81
2022/01/11 03:55:31;;;;;;;4.97;4.03;;;0.50;96.50;;;;;;5074309;28;20254;-82
2022/01/11 03:57:57;;;;;;;5.20;4.30;;;0.60;96.40;;;;;;5073612;28;20159;-82
2022/01/11 04:00:22;;;;;;;4.43;4.03;;;0.50;96.50;;;;;;5074204;28;20177;-81
2022/01/11 04:02:48;;;;;;;4.30;4.00;;;0.50;96.60;;;;;;5074100;28;20637;-80
2022/01/11 04:05:14;;;;;;;4.70;4.27;;;0.40;96.70;;;;;;5074089;28;20518;-80
2022/01/11 04:07:41;;;;;;;4.40;4.00;;;0.40;96.70;;;;;;5074237;28;20728;-81
2022/01/11 04:10:08;;;;;;;5.03;4.47;;;0.50;96.50;;;;;;5073998;28;20173;-82
2022/01/11 04:12:35;;;;;;;4.90;4.50;;;0.40;96.60;;;;;;5073874;28;20700;-81
2022/01/11 04:15:01;;;;;;;4.43;4.00;;;0.50;96.80;;;;;;5073849;28;20184;-82
2022/01/11 04:17:27;;;;;;;6.77;5.60;;;0.40;96.70;;;;;;5073733;28;20176;-81
2022/01/11 04:19:52;;;;;;;5.23;4.40;;;0.30;96.90;;;;;;5073698;28;20254;-83
2022/01/11 04:22:19;;;;;;;7.23;4.00;;;0.40;97.10;;;;;;5073936;28;20179;-83
2022/01/11 04:24:45;;;;;;;5.10;4.60;;;0.30;97.10;;;;;;5072434;28;20202;-83
2022/01/11 04:27:11;;;;;;;7.80;7.00;;;0.30;96.90;;;;;;5073630;28;20790;-83
2022/01/11 04:29:37;;;;;;;5.87;5.30;;;0.40;96.90;;;;;;5073494;28;20274;-83
2022/01/11 04:32:03;;;;;;;5.10;4.60;;;0.40;96.90;;;;;;5073564;28;20176;-83
2022/01/11 04:34:29;;;;;;;7.50;5.77;;;0.40;96.80;;;;;;5073587;28;20172;-82
2022/01/11 04:36:55;;;;;;;5.57;4.97;;;0.30;96.80;;;;;;5091542;28;20347;-81
2022/01/11 04:39:22;;;;;;;15.33;9.33;;;0.30;97.00;;;;;;5093672;28;20210;-82
2022/01/11 04:41:49;;;;;;;8.67;7.17;;;0.30;97.40;;;;;;5093572;28;20172;-83
2022/01/11 04:44:15;;;;;;;11.70;7.43;;;0.30;96.80;;;;;;5093568;28;20569;-83
2022/01/11 04:46:40;;;;;;;6.97;6.23;;;0.40;96.70;;;;;;5093621;28;20228;-83
2022/01/11 04:49:07;;;;;;;7.90;6.83;;;0.30;96.90;;;;;;5093478;28;20543;-82
2022/01/11 04:51:34;;;;;;;7.33;5.70;;;0.40;97.10;;;;;;5093457;28;20237;-82
2022/01/11 04:54:01;;;;;;;4.47;4.07;;;0.30;96.90;;;;;;5093439;28;20173;-81
2022/01/11 04:56:27;;;;;;;5.83;4.33;;;0.30;96.70;;;;;;5093439;28;20175;-81
2022/01/11 04:58:53;;;;;;;4.87;4.40;;;0.40;96.80;;;;;;5093329;28;20624;-81
2022/01/11 05:01:18;;;;;;;4.97;4.57;;;0.50;97.10;;;;;;5093394;28;20252;-81
2022/01/11 05:03:44;;;;;;;5.73;4.40;;;0.50;97.20;;;;;;5093365;28;20526;-81
2022/01/11 05:06:10;;;;;;;3.93;3.57;;;0.50;96.90;;;;;;5075132;28;20200;-80
2022/01/11 05:08:36;;;;;;;4.20;3.90;;;0.40;96.50;;;;;;5092416;28;20168;-81
2022/01/11 05:11:02;;;;;;;4.80;3.50;;;0.50;96.50;;;;;;5093185;28;20256;-81
2022/01/11 05:13:31;;;;;;;4.33;3.83;;;0.40;96.60;;;;;;5075413;28;20714;-80
2022/01/11 05:15:57;;;;;;;4.73;3.67;;;0.40;96.70;;;;;;5075359;28;20180;-81
2022/01/11 05:18:22;;;;;;;3.83;3.53;;;0.40;96.40;;;;;;5093383;28;20721;-81
2022/01/11 05:20:48;;;;;;;3.30;3.10;;;0.50;96.80;;;;;;5093071;28;20180;-81
2022/01/11 05:23:14;;;;;;;3.60;3.30;;;0.50;97.00;;;;;;5093046;28;20619;-81
2022/01/11 05:25:41;;;;;;;4.10;3.70;;;0.50;97.00;;;;;;5093011;28;20240;-81
2022/01/11 05:28:07;;;;;;;3.97;3.67;;;0.50;96.60;;;;;;5093148;28;20259;-81
2022/01/11 05:30:32;;;;;;;6.10;3.20;;;0.50;96.90;;;;;;5074913;28;20587;-82
2022/01/11 05:32:58;;;;;;;3.70;3.40;;;0.50;96.80;;;;;;5092992;28;20198;-81
2022/01/11 05:35:25;;;;;;;4.03;3.67;;;0.60;96.40;;;;;;5071371;28;20687;-81
2022/01/11 05:37:52;;;;;;;4.13;3.57;;;0.60;96.00;;;;;;5071450;28;20176;-82
2022/01/11 05:40:20;;;;;;;4.37;3.47;;;0.70;96.10;;;;;;5072791;28;20219;-81
2022/01/11 05:42:48;;;;;;;4.10;3.70;;;0.70;95.70;;;;;;5071482;28;20188;-81
2022/01/11 05:45:14;;;;;;;4.00;3.70;;;0.70;95.90;;;;;;5072759;28;20173;-82
2022/01/11 05:47:40;;;;;;;3.60;3.30;;;0.80;95.60;;;;;;5071446;28;20183;-82
2022/01/11 05:50:09;;;;;;;5.73;3.37;;;0.70;95.70;;;;;;5072621;28;20199;-82
2022/01/11 05:52:36;;;;;;;3.87;3.57;;;0.70;95.90;;;;;;5072932;28;20260;-82
2022/01/11 05:55:03;;;;;;;3.70;3.40;;;0.80;95.80;;;;;;5072554;28;20177;-82
2022/01/11 05:57:29;;;;;;;4.10;3.70;;;1.00;95.30;;;;;;5072497;28;20180;-81
2022/01/11 05:59:54;;;;;;;5.50;3.50;;;1.10;95.30;;;;;;5072539;28;20203;-82
2022/01/11 06:02:20;;;;;;;7.33;3.47;;;1.10;95.40;;;;;;5072490;28;20183;-81
2022/01/11 06:04:46;;;;;;;4.93;3.30;;;1.20;95.10;;;;;;5072596;28;20176;-82
2022/01/11 06:07:11;;;;;;;3.20;2.90;;;1.40;95.00;;;;;;5072486;28;20279;-82
2022/01/11 06:09:37;;;;;;;4.37;3.17;;;1.70;94.70;;;;;;5072522;28;20230;-82
2022/01/11 06:12:03;;;;;;;3.50;3.23;;;1.70;94.80;;;;;;5072448;28;20181;-82
2022/01/11 06:14:29;;;;;;;3.60;3.17;;;1.70;94.80;;;;;;5072411;28;20179;-81
2022/01/11 06:16:55;;;;;;;3.40;3.10;;;1.70;94.90;;;;;;5072574;28;20175;-82
2022/01/11 06:19:21;;;;;;;5.07;3.13;;;1.70;95.20;;;;;;5072568;28;20265;-82
2022/01/11 06:21:47;;;;;;;3.70;3.40;;;1.70;95.50;;;;;;5075338;28;20540;-82
2022/01/11 06:24:13;;;;;;;3.27;3.07;;;1.70;95.10;;;;;;5076051;28;20202;-83
2022/01/11 06:26:38;;;;;;;5.23;3.37;;;1.70;95.30;;;;;;5069615;28;20677;-81
2022/01/11 06:29:04;;;;;;;4.17;3.77;;;1.70;95.10;;;;;;5055861;28;20220;-81
2022/01/11 06:31:30;;;;;;;4.07;3.53;;;1.70;95.30;;;;;;5055916;28;20167;-82
2022/01/11 06:33:56;;;;;;;2.80;2.60;;;1.80;94.90;;;;;;5055795;28;20180;-82
2022/01/11 06:36:22;;;;;;;3.10;2.80;;;2.10;94.00;;;;;;5054385;28;20231;-83
2022/01/11 06:38:48;;;;;;;3.50;3.20;;;2.20;93.70;;;;;;5055597;28;20210;-82
2022/01/11 06:41:15;;;;;;;3.00;2.80;;;2.30;93.70;;;;;;5055692;28;20257;-82
2022/01/11 06:43:41;;;;;;;3.03;2.83;;;2.40;93.40;;;;;;5055643;28;20190;-88
2022/01/11 06:46:06;;;;;;;3.00;2.80;;;2.60;93.20;;;;;;5055987;28;20214;-85
2022/01/11 06:48:35;;;;;;;3.10;2.80;;;2.80;92.90;;;;;;5055650;28;20175;-83
2022/01/11 06:51:01;;;;;;;2.60;2.43;;;2.90;92.70;;;;;;5055538;28;20175;-82
2022/01/11 06:53:28;;;;;;;2.50;2.40;;;2.80;92.80;;;;;;5055423;28;20185;-82
2022/01/11 06:55:54;;;;;;;3.17;2.70;;;2.90;92.40;;;;;;5055407;28;20178;-81
2022/01/11 06:58:21;;;;;;;3.60;3.40;;;2.80;92.60;;;;;;5055285;28;20202;-82
2022/01/11 07:00:48;;;;;;;3.93;3.53;;;2.70;92.70;;;;;;5055240;28;20186;-81
2022/01/11 07:03:15;;;;;;;4.37;3.97;;;2.50;93.00;;;;;;5055312;28;20179;-81
2022/01/11 07:05:42;;;;;;;4.17;3.77;;;2.40;93.00;;;;;;5055291;28;20571;-82
2022/01/11 07:08:08;;;;;;;3.90;3.60;;;2.30;93.30;;;;;;5059261;28;20179;-80
2022/01/11 07:10:34;;;;;;;6.93;3.93;;;2.20;93.30;;;;;;5059221;28;20182;-81
2022/01/11 07:13:00;;;;;;;6.83;4.70;;;2.20;93.70;;;;;;5055354;28;20177;-81
2022/01/11 07:15:25;;;;;;;9.23;4.90;;;2.00;93.90;;;;;;5055191;28;20179;-81
2022/01/11 07:17:51;;;;;;;8.23;5.87;;;2.00;94.20;;;;;;5055396;28;20531;-81
2022/01/11 07:20:18;;;;;;;8.57;6.17;;;1.90;94.50;;;;;;5055285;28;20692;-81
2022/01/11 07:22:44;;;;;;;8.90;6.03;;;1.80;94.50;;;;;;5054961;28;20177;-82
2022/01/11 07:25:09;;;;;;;9.37;5.83;;;1.60;94.50;;;;;;5055283;28;20171;-82
2022/01/11 07:27:35;;;;;;;8.93;6.40;;;1.40;94.90;;;;;;5055172;28;20265;-82
2022/01/11 07:30:04;;;;;;;8.73;6.43;;;1.20;95.20;;;;;;5054265;28;20713;-81
2022/01/11 07:32:31;;;;;;;9.03;6.80;;;1.00;95.50;;;;;;5054232;28;20268;-82
2022/01/11 07:34:58;;;;;;;11.40;7.07;;;1.00;95.70;;;;;;5055063;28;20185;-81
2022/01/11 07:37:24;;;;;;;9.40;7.27;;;0.90;96.00;;;;;;5074617;28;20172;-80
2022/01/11 07:39:50;;;;;;;13.90;7.90;;;0.80;95.90;;;;;;5074585;28;20265;-83
2022/01/11 07:42:16;;;;;;;9.90;6.90;;;0.80;96.90;;;;;;5075036;28;20168;-85
2022/01/11 07:44:43;;;;;;;9.97;6.40;;;0.90;96.20;;;;;;5074872;28;20184;-83
2022/01/11 07:47:09;;;;;;;13.67;7.13;;;0.80;96.10;;;;;;5074663;28;20263;-83
2022/01/11 07:49:35;;;;;;;9.10;7.50;;;0.70;96.20;;;;;;5073038;28;20261;-83
2022/01/11 07:52:01;;;;;;;10.27;7.23;;;0.70;96.40;;;;;;5074004;28;20639;-83
2022/01/11 07:54:27;;;;;;;10.37;7.97;;;0.70;96.30;;;;;;5073967;28;20172;-83
2022/01/11 07:56:53;;;;;;;14.30;8.50;;;0.70;96.30;;;;;;5073975;28;20260;-83
2022/01/11 07:59:19;;;;;;;34.33;16.80;;;0.60;96.50;;;;;;5073947;28;20297;-83
2022/01/11 08:01:45;;;;;;;21.10;12.90;;;0.60;97.20;;;;;;5073901;28;20176;-83
2022/01/11 08:04:10;;;;;;;22.23;11.73;;;0.60;96.80;;;;;;5073851;28;20177;-83
2022/01/11 08:06:36;;;;;;;16.60;10.40;;;0.60;97.00;;;;;;5073673;28;20269;-83
2022/01/11 08:09:03;;;;;;;16.03;9.80;;;0.60;96.90;;;;;;5073885;28;20537;-83
2022/01/11 08:11:29;;;;;;;12.70;9.03;;;0.60;97.10;;;;;;5073697;28;20623;-82
2022/01/11 08:13:55;;;;;;;11.03;8.40;;;0.70;96.90;;;;;;5073571;28;20181;-82
2022/01/11 08:16:21;;;;;;;13.40;8.57;;;0.60;97.00;;;;;;5073453;28;20268;-83
2022/01/11 08:18:47;;;;;;;10.17;8.13;;;0.60;97.30;;;;;;5073393;28;20627;-83
2022/01/11 08:21:13;;;;;;;13.33;8.93;;;0.70;97.50;;;;;;5073409;28;20511;-83
2022/01/11 08:23:39;;;;;;;12.40;9.13;;;0.70;97.50;;;;;;5073392;28;20183;-83
2022/01/11 08:26:05;;;;;;;12.43;9.17;;;0.60;97.60;;;;;;5073384;28;20172;-83
2022/01/11 08:28:32;;;;;;;14.17;9.47;;;0.60;97.70;;;;;;5073189;28;20170;-83
2022/01/11 08:30:59;;;;;;;16.70;9.60;;;0.70;98.00;;;;;;5073255;28;20205;-83
2022/01/11 08:33:25;;;;;;;13.93;9.73;;;0.60;98.10;;;;;;5073327;28;20170;-82
2022/01/11 08:35:51;;;;;;;17.07;9.20;;;0.70;98.10;;;;;;5072897;28;20750;-82
2022/01/11 08:38:18;;;;;;;12.33;9.20;;;0.70;98.20;;;;;;5073017;28;20207;-83
2022/01/11 08:40:44;;;;;;;16.17;9.57;;;0.80;98.20;;;;;;5073196;28;20255;-83
2022/01/11 08:43:09;;;;;;;12.50;9.60;;;0.80;98.10;;;;;;5072861;28;20212;-82
2022/01/11 08:45:37;;;;;;;12.00;8.87;;;0.90;98.30;;;;;;5073138;28;20202;-83
2022/01/11 08:48:03;;;;;;;11.97;9.33;;;0.90;98.20;;;;;;5054934;28;20199;-83
2022/01/11 08:50:29;;;;;;;12.43;9.10;;;0.90;98.40;;;;;;5073107;28;20184;-83
2022/01/11 08:52:55;;;;;;;13.77;9.00;;;1.00;98.50;;;;;;5055265;28;20181;-83
2022/01/11 08:55:20;;;;;;;12.30;9.50;;;1.00;98.20;;;;;;5073444;28;20178;-82
2022/01/11 08:57:46;;;;;;;15.60;9.37;;;1.10;98.30;;;;;;5073204;28;20180;-82
2022/01/11 09:00:18;;;;;;;10.70;8.80;;;1.20;98.10;;;;;;5072986;28;20296;-83
2022/01/11 09:02:46;;;;;;;13.07;9.70;;;1.40;97.90;;;;;;5073317;28;20162;-82
2022/01/11 09:05:12;;;;;;;14.43;9.90;;;1.40;98.20;;;;;;5073264;28;20183;-83
2022/01/11 09:07:38;;;;;;;14.13;10.13;;;1.50;98.00;;;;;;5073148;28;20255;-83
2022/01/11 09:10:05;;;;;;;12.77;9.80;;;1.60;97.90;;;;;;5073813;28;20252;-82
2022/01/11 09:12:30;;;;;;;13.63;10.23;;;1.70;98.30;;;;;;5055907;28;20209;-82
2022/01/11 09:14:56;;;;;;;14.50;10.30;;;1.80;98.00;;;;;;5074520;28;20188;-82
2022/01/11 09:17:22;;;;;;;17.77;10.63;;;1.80;98.30;;;;;;5073387;28;20162;-83
2022/01/11 09:19:48;;;;;;;15.47;10.07;;;1.90;98.30;;;;;;5073010;28;20212;-83
2022/01/11 09:22:14;;;;;;;16.70;10.50;;;1.90;98.10;;;;;;5072965;28;20252;-83
2022/01/11 09:24:40;;;;;;;14.30;10.23;;;1.90;98.00;;;;;;5072992;28;20254;-83
2022/01/11 09:27:06;;;;;;;15.80;9.97;;;2.20;99.90;;;;;;5072845;28;20173;-83
2022/01/11 09:29:34;;;;;;;13.87;10.53;;;2.30;99.90;;;;;;5072822;28;20235;-83
2022/01/11 09:32:01;;;;;;;16.17;10.73;;;2.60;99.90;;;;;;5072825;28;20173;-83
2022/01/11 09:34:30;;;;;;;17.33;10.63;;;2.60;98.30;;;;;;5072847;28;20174;-83
2022/01/11 09:36:55;;;;;;;14.43;10.33;;;2.50;98.00;;;;;;5072558;28;20253;-83
2022/01/11 09:39:21;;;;;;;17.27;10.77;;;2.40;97.70;;;;;;5069086;28;20237;-83
2022/01/11 09:41:47;;;;;;;14.80;10.80;;;2.40;98.10;;;;;;5092920;28;20181;-83
2022/01/11 09:44:13;;;;;;;15.77;10.33;;;2.40;98.00;;;;;;5092933;28;20261;-83
2022/01/11 09:46:39;;;;;;;14.73;10.80;;;2.40;98.00;;;;;;5092800;28;20174;-83
2022/01/11 09:49:05;;;;;;;14.77;10.83;;;2.40;98.00;;;;;;5092805;28;20176;-83
2022/01/11 09:51:33;;;;;;;14.40;10.73;;;2.50;98.10;;;;;;5093165;28;20520;-83
2022/01/11 09:53:59;;;;;;;14.57;10.73;;;2.50;98.10;;;;;;5092841;28;20179;-84
2022/01/11 09:56:24;;;;;;;16.07;10.87;;;2.50;97.90;;;;;;5095421;28;20174;-83
2022/01/11 09:58:50;;;;;;;15.67;11.00;;;2.50;97.80;;;;;;5096648;28;20194;-83
2022/01/11 10:01:16;;;;;;;15.37;10.77;;;2.50;98.20;;;;;;5078477;28;20182;-83
2022/01/11 10:04:07;;;;;;;19.87;11.80;;;2.60;98.30;;;;;;5078473;28;20177;-83
2022/01/11 10:06:37;;;;;;;18.37;11.90;;;2.60;98.30;;;;;;5096576;28;20241;-83
2022/01/11 10:09:18;;;;;;;19.47;11.83;;;2.60;98.10;;;;;;5096475;28;20620;-83
2022/01/11 10:11:46;;;;;;;18.67;11.00;;;2.80;97.30;;;;;;5096783;28;20247;-84
2022/01/11 10:14:29;;;;;;;13.63;8.63;;;2.80;97.30;;;;;;5096478;28;20265;-83
2022/01/11 10:17:16;;;;;;;3.97;3.00;;;2.90;96.10;;;;;;5078305;28;20526;-84
2022/01/11 10:20:00;;;;;;;2.90;2.70;;;3.50;90.80;;;;;;5096596;28;20206;-83
2022/01/11 10:22:27;;;;;;;2.00;1.90;;;3.90;88.80;;;;;;5078180;28;20259;-83
2022/01/11 10:24:54;;;;;;;2.00;1.90;;;4.20;87.00;;;;;;5096297;28;20178;-83
2022/01/11 10:27:33;;;;;;;2.00;1.93;;;4.40;85.40;;;;;;5096308;28;20499;-83
2022/01/11 10:30:12;;;;;;;4.57;2.20;;;4.60;83.80;;;;;;5096062;28;20631;-83
2022/01/11 10:32:46;;;;;;;2.10;2.00;;;4.80;82.90;;;;;;5078088;28;20206;-83
2022/01/11 10:35:17;;;;;;;4.40;2.53;;;4.80;84.20;;;;;;5096260;28;21317;-83
2022/01/11 10:37:49;;;;;;;2.23;2.13;;;4.80;84.40;;;;;;5096098;28;20155;-83
2022/01/11 10:40:19;;;;;;;2.20;2.10;;;4.90;84.50;;;;;;5095846;28;20256;-83
2022/01/11 10:42:56;;;;;;;2.60;2.03;;;5.00;84.40;;;;;;5095924;28;20261;-83
2022/01/11 10:45:29;;;;;;;2.17;2.07;;;5.10;83.00;;;;;;5096120;28;20150;-83
2022/01/11 10:47:58;;;;;;;2.13;2.03;;;5.20;82.00;;;;;;5096030;28;20189;-83
2022/01/11 10:50:28;;;;;;;2.30;2.17;;;5.20;79.70;;;;;;5096024;28;20527;-83
2022/01/11 10:52:59;;;;;;;1.80;1.70;;;5.30;79.20;;;;;;5096000;28;20154;-83
2022/01/11 10:55:28;;;;;;;1.87;1.73;;;5.40;79.20;;;;;;5077744;28;20580;-83
2022/01/11 10:58:03;;;;;;;2.00;1.90;;;5.50;74.10;;;;;;5096132;28;20194;-83
2022/01/11 11:00:31;;;;;;;1.53;1.53;;;5.50;71.40;;;;;;5096049;28;20219;-83
2022/01/11 11:03:12;;;;;;;1.73;1.63;;;5.60;71.10;;;;;;5096329;28;20171;-83
2022/01/11 11:05:45;;;;;;;1.87;1.73;;;5.60;69.80;;;;;;5096170;28;20621;-83
2022/01/11 11:08:14;;;;;;;1.57;1.57;;;5.60;69.70;;;;;;5097981;28;20168;-82
2022/01/11 11:10:46;;;;;;;1.73;1.70;;;5.60;69.20;;;;;;5096190;28;20180;-83
2022/01/11 11:13:33;;;;;;;1.73;1.63;;;5.60;69.20;;;;;;5096403;28;20182;-83
2022/01/11 11:16:08;;;;;;;1.70;1.60;;;5.70;68.70;;;;;;5095752;28;20218;-83
2022/01/11 11:19:01;;;;;;;1.63;1.60;;;5.70;69.30;;;;;;5077205;28;20173;-83
2022/01/11 11:21:33;;;;;;;1.93;1.83;;;5.80;68.10;;;;;;5081938;28;20289;-83
2022/01/11 11:24:07;;;;;;;1.97;1.87;;;5.80;68.80;;;;;;5095168;28;20157;-83
2022/01/11 11:26:37;;;;;;;1.80;1.70;;;5.90;69.40;;;;;;5076968;28;20267;-83
2022/01/11 11:29:04;;;;;;;1.37;1.37;;;5.90;66.90;;;;;;5094978;28;20166;-83
2022/01/11 11:31:31;;;;;;;1.60;1.50;;;6.00;66.00;;;;;;5095108;28;20170;-83
2022/01/11 11:33:56;;;;;;;6.30;1.40;;;5.90;64.90;;;;;;5094992;28;20222;-83
2022/01/11 11:36:24;;;;;;;1.30;1.30;;;5.90;64.00;;;;;;5094710;28;20689;-83
2022/01/11 11:39:17;;;;;;;1.90;1.80;;;5.90;64.10;;;;;;5094706;28;20243;-83
2022/01/11 11:41:52;;;;;;;1.53;1.50;;;5.90;64.40;;;;;;5094885;28;20252;-84
2022/01/11 11:44:21;;;;;;;2.43;1.57;;;5.90;63.10;;;;;;5094886;28;20168;-84
2022/01/11 11:46:54;;;;;;;1.63;1.53;;;5.90;63.30;;;;;;5094692;28;20177;-84
2022/01/11 11:49:46;;;;;;;1.93;1.80;;;6.00;63.60;;;;;;5094587;28;20195;-83
2022/01/11 11:52:38;;;;;;;3.27;2.00;;;6.00;63.80;;;;;;5076527;28;20172;-84
2022/01/11 11:55:23;;;;;;;2.80;1.77;;;6.00;64.70;;;;;;5094548;28;20566;-83
2022/01/11 11:57:52;;;;;;;2.00;1.90;;;6.00;64.50;;;;;;5094571;28;20155;-83
2022/01/11 12:00:24;;;;;;;1.90;1.73;;;6.00;63.40;;;;;;5094325;28;20689;-83
2022/01/11 12:02:51;;;;;;;2.37;1.53;;;6.00;62.80;;;;;;5094384;28;20184;-83
2022/01/11 12:05:40;;;;;;;4.07;1.60;;;6.00;60.80;;;;;;5076041;28;20677;-83
2022/01/11 12:08:34;;;;;;;2.70;1.80;;;6.10;63.00;;;;;;5093966;28;20171;-83
2022/01/11 12:11:11;;;;;;;2.93;1.70;;;6.10;62.30;;;;;;5076047;28;20180;-82
2022/01/11 12:13:47;;;;;;;1.57;1.53;;;6.00;61.80;;;;;;5094344;28;20634;-83
2022/01/11 12:16:29;;;;;;;1.67;1.60;;;6.00;61.00;;;;;;5093976;28;20617;-84
2022/01/11 12:19:04;;;;;;;1.83;1.50;;;6.00;60.80;;;;;;5093714;28;20205;-83
2022/01/11 12:21:44;;;;;;;1.47;1.47;;;6.00;60.90;;;;;;5076031;28;20182;-83
2022/01/11 12:24:11;;;;;;;1.70;1.60;;;6.00;59.70;;;;;;5094217;28;20620;-83
2022/01/11 12:26:37;;;;;;;2.00;1.60;;;6.00;59.60;;;;;;5093881;28;20171;-84
2022/01/11 12:29:08;;;;;;;2.37;1.40;;;6.00;58.20;;;;;;5094207;28;20178;-84
2022/01/11 12:31:48;;;;;;;2.07;1.47;;;6.00;58.40;;;;;;5093879;28;20154;-83
2022/01/11 12:34:14;;;;;;;1.40;1.30;;;6.10;57.90;;;;;;5093905;28;20157;-83
2022/01/11 12:37:02;;;;;;;1.70;1.50;;;6.00;57.40;;;;;;5093527;28;20226;-84
2022/01/11 12:39:31;;;;;;;1.57;1.47;;;6.00;58.70;;;;;;5093894;28;20218;-83
2022/01/11 12:41:58;;;;;;;1.80;1.70;;;6.00;58.80;;;;;;5093733;28;20171;-83
2022/01/11 12:45:35;;;;;;;1.40;1.40;;;6.10;59.10;;;;;;5093685;28;20173;-83
2022/01/11 12:47:22;;;;;;;1.60;1.50;;;6.00;58.80;;;;;;5093460;28;20250;-83
2022/01/11 12:50:06;;;;;;;1.53;1.50;;;6.00;58.50;;;;;;5075336;28;20193;-83
2022/01/11 12:52:35;;;;;;;1.60;1.60;;;5.90;58.20;;;;;;5093527;28;20503;-83
2022/01/11 12:55:02;;;;;;;1.43;1.43;;;5.90;58.50;;;;;;5093616;28;20175;-83
2022/01/11 12:57:30;;;;;;;1.63;1.40;;;6.00;57.90;;;;;;5093686;28;20166;-83
2022/01/11 13:00:04;;;;;;;1.50;1.40;;;6.00;58.20;;;;;;5075222;28;20296;-83